createdAt,value
2022-10-22T00:00:40.596Z,19.55
2022-10-22T00:03:07.822Z,19.17
2022-10-22T00:05:35.009Z,19.92
2022-10-22T00:08:02.180Z,20.15
2022-10-22T00:10:29.346Z,19.98
2022-10-22T00:12:56.510Z,24.13
2022-10-22T00:15:23.862Z,20.88
2022-10-22T00:17:54.104Z,24.40
2022-10-22T00:20:21.453Z,20.83
2022-10-22T00:22:48.627Z,20.40
2022-10-22T00:25:16.098Z,21.92
2022-10-22T00:27:43.593Z,21.83
2022-10-22T00:30:11.023Z,24.10
2022-10-22T00:32:38.309Z,23.38
2022-10-22T00:35:05.910Z,23.00
2022-10-22T00:37:33.129Z,23.25
2022-10-22T00:40:00.305Z,22.92
2022-10-22T00:42:30.235Z,23.38
2022-10-22T00:45:12.487Z,22.73
2022-10-22T00:47:51.988Z,20.55
2022-10-22T00:50:22.046Z,23.67
2022-10-22T00:52:50.150Z,20.67
2022-10-22T00:55:18.456Z,23.33
2022-10-22T00:57:46.286Z,21.70
2022-10-22T01:00:13.764Z,21.73
2022-10-22T01:02:41.222Z,23.10
2022-10-22T01:05:08.775Z,22.38
2022-10-22T01:07:38.929Z,20.85
2022-10-22T01:10:09.698Z,20.38
2022-10-22T01:12:55.694Z,21.45
2022-10-22T01:15:46.166Z,21.15
2022-10-22T01:18:22.163Z,20.58
2022-10-22T01:20:58.057Z,20.10
2022-10-22T01:23:25.241Z,18.27
2022-10-22T01:25:59.620Z,18.85
2022-10-22T01:28:45.486Z,18.65
2022-10-22T01:31:14.323Z,20.00
2022-10-22T01:33:41.921Z,20.45
2022-10-22T01:36:09.474Z,21.13
2022-10-22T01:38:37.168Z,21.33
2022-10-22T01:41:04.409Z,20.90
2022-10-22T01:43:31.560Z,21.38
2022-10-22T01:45:59.858Z,20.90
2022-10-22T01:48:27.353Z,22.83
2022-10-22T01:51:13.197Z,22.77
2022-10-22T01:56:07.455Z,21.70
2022-10-22T01:58:37.339Z,24.13
2022-10-22T02:01:08.537Z,24.50
2022-10-22T02:03:42.085Z,23.23
2022-10-22T02:06:12.435Z,21.80
2022-10-22T02:08:39.981Z,20.92
2022-10-22T02:11:07.426Z,20.83
2022-10-22T02:13:38.545Z,23.00
2022-10-22T02:16:07.576Z,21.70
2022-10-22T02:18:38.767Z,20.52
2022-10-22T02:23:35.016Z,20.55
2022-10-22T02:26:12.745Z,22.38
2022-10-22T02:28:43.795Z,20.30
2022-10-22T02:31:14.953Z,22.92
2022-10-22T02:33:44.276Z,20.60
2022-10-22T02:36:11.876Z,20.10
2022-10-22T02:38:39.704Z,20.60
2022-10-22T02:41:06.980Z,19.45
2022-10-22T02:43:39.878Z,20.55
2022-10-22T02:46:07.120Z,18.13
2022-10-22T02:48:34.309Z,20.63
2022-10-22T02:51:01.428Z,18.50
2022-10-22T02:53:28.562Z,19.02
2022-10-22T02:55:55.758Z,19.33
2022-10-22T02:58:22.891Z,18.52
2022-10-22T03:00:50.039Z,19.02
2022-10-22T03:03:17.344Z,18.23
2022-10-22T03:05:44.497Z,19.15
2022-10-22T03:08:11.764Z,19.27
2022-10-22T03:10:38.898Z,18.50
2022-10-22T03:13:06.021Z,18.95
2022-10-22T03:15:33.171Z,17.98
2022-10-22T03:18:00.452Z,17.88
2022-10-22T03:20:27.852Z,17.17
2022-10-22T03:22:55.881Z,16.98
2022-10-22T03:25:24.745Z,18.10
2022-10-22T03:27:53.171Z,16.52
2022-10-22T03:30:20.492Z,19.45
2022-10-22T03:32:47.637Z,17.70
2022-10-22T03:35:14.953Z,16.80
2022-10-22T03:37:42.855Z,19.60
2022-10-22T03:40:11.527Z,18.20
2022-10-22T03:42:38.701Z,17.35
2022-10-22T03:45:06.254Z,21.65
2022-10-22T03:47:33.423Z,19.90
2022-10-22T03:50:00.648Z,19.05
2022-10-22T03:52:28.037Z,18.98
2022-10-22T03:54:55.229Z,18.77
2022-10-22T03:57:22.375Z,18.35
2022-10-22T03:59:50.935Z,18.83
2022-10-22T04:02:18.134Z,16.75
2022-10-22T04:04:45.285Z,17.70
2022-10-22T04:07:12.413Z,19.20
2022-10-22T04:09:39.585Z,19.80
2022-10-22T04:12:07.985Z,20.55
2022-10-22T04:14:35.191Z,19.55
2022-10-22T04:17:02.617Z,21.08
2022-10-22T04:19:29.940Z,20.38
2022-10-22T04:21:59.393Z,18.60
2022-10-22T04:24:26.730Z,19.75
2022-10-22T04:26:57.092Z,19.55
2022-10-22T04:29:24.445Z,20.92
2022-10-22T04:31:51.645Z,19.02
2022-10-22T04:34:18.780Z,19.85
2022-10-22T04:36:45.954Z,20.40
2022-10-22T04:39:13.097Z,22.15
2022-10-22T04:41:40.305Z,21.55
2022-10-22T04:44:12.242Z,22.00
2022-10-22T04:46:43.153Z,21.80
2022-10-22T04:49:10.402Z,20.58
2022-10-22T04:51:37.588Z,20.85
2022-10-22T04:54:05.004Z,21.38
2022-10-22T04:56:32.864Z,25.20
2022-10-22T04:59:09.615Z,21.55
2022-10-22T05:01:43.984Z,23.90
2022-10-22T05:04:15.797Z,24.05
2022-10-22T05:06:43.306Z,23.45
2022-10-22T05:09:17.656Z,25.85
2022-10-22T05:11:46.391Z,23.50
2022-10-22T05:14:13.769Z,23.55
2022-10-22T05:16:40.974Z,25.48
2022-10-22T05:19:08.320Z,23.30
2022-10-22T05:21:35.800Z,21.35
2022-10-22T05:24:04.052Z,24.58
2022-10-22T05:26:31.221Z,23.45
2022-10-22T05:28:58.345Z,23.75
2022-10-22T05:31:26.172Z,23.02
2022-10-22T05:33:53.316Z,23.02
2022-10-22T05:36:21.430Z,24.50
2022-10-22T05:38:48.657Z,22.02
2022-10-22T05:41:17.456Z,22.15
2022-10-22T05:43:44.882Z,22.25
2022-10-22T05:46:16.559Z,21.42
2022-10-22T05:48:49.067Z,22.58
2022-10-22T05:51:16.293Z,23.45
2022-10-22T05:53:43.952Z,23.17
2022-10-22T05:56:15.584Z,21.05
2022-10-22T05:58:43.728Z,22.85
2022-10-22T06:01:16.920Z,22.40
2022-10-22T06:03:44.543Z,21.58
2022-10-22T06:06:33.142Z,22.00
2022-10-22T06:09:05.909Z,21.90
2022-10-22T06:11:35.126Z,20.35
2022-10-22T06:14:02.643Z,20.73
2022-10-22T06:16:30.408Z,20.98
2022-10-22T06:18:59.532Z,21.33
2022-10-22T06:21:26.659Z,21.75
2022-10-22T06:23:53.801Z,22.70
2022-10-22T06:26:20.908Z,21.88
2022-10-22T06:28:48.097Z,22.00
2022-10-22T06:31:15.216Z,21.35
2022-10-22T06:33:43.320Z,22.42
2022-10-22T06:36:14.668Z,20.83
2022-10-22T06:38:42.333Z,21.40
2022-10-22T06:41:11.049Z,21.02
2022-10-22T06:43:38.329Z,20.15
2022-10-22T06:46:07.432Z,21.83
2022-10-22T06:48:36.103Z,20.98
2022-10-22T06:51:04.081Z,20.85
2022-10-22T06:53:31.497Z,19.35
2022-10-22T06:55:58.640Z,20.70
2022-10-22T06:58:26.033Z,19.58
2022-10-22T07:01:01.693Z,20.50
2022-10-22T07:03:28.903Z,18.65
2022-10-22T07:05:56.076Z,18.83
2022-10-22T07:08:23.244Z,19.60
2022-10-22T07:10:50.369Z,17.23
2022-10-22T07:13:17.483Z,17.95
2022-10-22T07:15:44.641Z,17.95
2022-10-22T07:18:11.798Z,17.52
2022-10-22T07:20:38.928Z,17.17
2022-10-22T07:23:06.076Z,17.20
2022-10-22T07:25:33.205Z,16.58
2022-10-22T07:28:00.352Z,16.33
2022-10-22T07:30:27.541Z,16.08
2022-10-22T07:32:54.674Z,16.75
2022-10-22T07:35:22.201Z,14.68
2022-10-22T07:37:49.368Z,14.32
2022-10-22T07:40:16.560Z,14.25
2022-10-22T07:42:43.687Z,12.73
2022-10-22T07:45:10.942Z,12.85
2022-10-22T07:47:38.271Z,13.00
2022-10-22T07:50:07.333Z,13.00
2022-10-22T07:52:34.588Z,11.23
2022-10-22T07:55:01.752Z,11.13
2022-10-22T07:57:28.901Z,11.27
2022-10-22T07:59:58.113Z,10.52
2022-10-22T08:02:26.102Z,11.27
2022-10-22T08:04:53.253Z,10.93
2022-10-22T08:07:20.433Z,12.07
2022-10-22T08:09:47.662Z,9.05
2022-10-22T08:12:15.080Z,10.10
2022-10-22T08:14:42.208Z,9.50
2022-10-22T08:17:09.424Z,8.88
2022-10-22T08:19:36.662Z,9.35
2022-10-22T08:22:04.191Z,10.27
2022-10-22T08:24:31.460Z,9.57
2022-10-22T08:26:58.597Z,10.10
2022-10-22T08:29:26.828Z,9.98
2022-10-22T08:31:54.561Z,9.20
2022-10-22T08:34:21.706Z,9.15
2022-10-22T08:36:48.835Z,9.50
2022-10-22T08:39:16.079Z,8.90
2022-10-22T08:41:52.314Z,8.32
2022-10-22T08:44:25.230Z,8.15
2022-10-22T08:46:52.623Z,8.00
2022-10-22T08:49:21.925Z,8.32
2022-10-22T08:51:49.134Z,7.90
2022-10-22T08:54:35.452Z,6.40
2022-10-22T08:57:21.320Z,7.75
2022-10-22T09:02:23.592Z,6.95
2022-10-22T09:04:56.481Z,6.43
2022-10-22T09:07:23.608Z,7.47
2022-10-22T09:09:51.739Z,7.50
2022-10-22T09:12:20.311Z,8.02
2022-10-22T09:14:47.901Z,6.28
2022-10-22T09:17:15.252Z,6.78
2022-10-22T09:19:48.199Z,6.57
2022-10-22T09:22:15.313Z,6.80
2022-10-22T09:24:47.029Z,6.90
2022-10-22T09:27:18.744Z,7.22
2022-10-22T09:29:46.585Z,5.63
2022-10-22T09:32:14.789Z,5.45
2022-10-22T09:34:42.041Z,5.28
2022-10-22T09:37:10.424Z,5.38
2022-10-22T09:39:42.232Z,4.72
2022-10-22T09:42:15.781Z,4.50
2022-10-22T09:44:46.312Z,3.97
2022-10-22T09:47:42.797Z,4.10
2022-10-22T09:50:22.811Z,3.47
2022-10-22T09:52:55.943Z,3.60
2022-10-22T09:55:25.541Z,4.03
2022-10-22T09:57:56.566Z,3.70
2022-10-22T10:00:25.087Z,5.05
2022-10-22T10:02:59.354Z,3.90
2022-10-22T10:05:37.679Z,4.55
2022-10-22T10:08:15.620Z,4.70
2022-10-22T10:10:46.643Z,3.75
2022-10-22T10:13:23.083Z,3.70
2022-10-22T10:15:50.257Z,4.72
2022-10-22T10:18:17.353Z,4.18
2022-10-22T10:20:50.301Z,4.05
2022-10-22T10:23:35.962Z,4.35
2022-10-22T10:28:30.132Z,4.22
2022-10-22T10:30:57.263Z,4.03
2022-10-22T10:33:29.419Z,4.13
2022-10-22T10:35:56.843Z,3.92
2022-10-22T10:38:39.784Z,3.50
2022-10-22T10:41:11.832Z,5.10
2022-10-22T10:43:38.960Z,4.38
2022-10-22T10:46:12.219Z,4.97
2022-10-22T10:48:39.357Z,4.93
2022-10-22T10:51:35.742Z,4.63
2022-10-22T10:54:21.643Z,4.93
2022-10-22T10:56:51.916Z,5.28
2022-10-22T10:59:19.022Z,4.20
2022-10-22T11:02:12.556Z,4.50
2022-10-22T11:04:51.583Z,4.75
2022-10-22T11:07:34.262Z,4.80
2022-10-22T11:10:34.589Z,5.20
2022-10-22T11:13:05.081Z,4.45
2022-10-22T11:15:33.900Z,5.00
2022-10-22T11:18:07.512Z,5.15
2022-10-22T11:20:40.709Z,4.93
2022-10-22T11:23:19.636Z,5.18
2022-10-22T11:25:49.323Z,4.90
2022-10-22T11:28:19.410Z,5.07
2022-10-22T11:30:48.150Z,4.63
2022-10-22T11:33:20.799Z,4.95
2022-10-22T11:35:48.965Z,5.38
2022-10-22T11:38:17.410Z,5.45
2022-10-22T11:40:48.191Z,5.47
2022-10-22T11:43:35.622Z,5.18
2022-10-22T11:46:23.073Z,4.93
2022-10-22T11:49:06.788Z,5.13
2022-10-22T11:51:34.037Z,4.57
2022-10-22T11:54:02.578Z,4.75
2022-10-22T11:56:37.793Z,4.75
2022-10-22T11:59:08.729Z,4.65
2022-10-22T12:01:42.841Z,5.13
2022-10-22T12:04:18.558Z,4.93
2022-10-22T12:06:53.113Z,5.15
2022-10-22T12:09:20.476Z,5.13
2022-10-22T12:11:48.867Z,5.30
2022-10-22T12:14:33.151Z,4.82
2022-10-22T12:17:10.804Z,4.47
2022-10-22T12:19:59.821Z,4.60
2022-10-22T12:22:33.282Z,4.88
2022-10-22T12:25:02.199Z,4.82
2022-10-22T12:27:35.140Z,4.65
2022-10-22T12:30:03.172Z,4.57
2022-10-22T12:32:37.731Z,5.70
2022-10-22T12:35:09.149Z,5.17
2022-10-22T12:37:37.231Z,5.68
2022-10-22T12:40:17.033Z,5.60
2022-10-22T12:42:51.486Z,5.70
2022-10-22T12:45:19.055Z,5.85
2022-10-22T12:47:47.749Z,6.15
2022-10-22T12:50:19.928Z,5.20
2022-10-22T12:52:48.153Z,5.47
2022-10-22T12:55:20.573Z,5.55
2022-10-22T12:57:48.861Z,4.95
2022-10-22T13:00:22.313Z,5.03
2022-10-22T13:02:49.878Z,4.25
2022-10-22T13:05:20.249Z,3.67
2022-10-22T13:07:55.008Z,3.53
2022-10-22T13:10:26.905Z,3.80
2022-10-22T13:12:57.785Z,4.15
2022-10-22T13:15:30.656Z,3.67
2022-10-22T13:18:03.879Z,3.58
2022-10-22T13:20:31.185Z,3.75
2022-10-22T13:23:03.281Z,4.18
2022-10-22T13:25:31.545Z,4.05
2022-10-22T13:28:04.092Z,3.78
2022-10-22T13:30:33.097Z,4.55
2022-10-22T13:33:07.534Z,5.10
2022-10-22T13:35:36.221Z,4.80
2022-10-22T13:38:04.051Z,4.40
2022-10-22T13:40:31.427Z,4.10
2022-10-22T13:42:58.611Z,3.95
2022-10-22T13:45:25.902Z,3.90
2022-10-22T13:47:54.089Z,4.88
2022-10-22T13:50:21.996Z,3.67
2022-10-22T13:52:54.097Z,3.95
2022-10-22T13:55:27.243Z,3.67
2022-10-22T13:57:56.966Z,4.15
2022-10-22T14:00:26.599Z,4.18
2022-10-22T14:02:55.117Z,4.22
2022-10-22T14:05:22.308Z,4.38
2022-10-22T14:07:49.609Z,3.33
2022-10-22T14:10:21.861Z,4.32
2022-10-22T14:12:52.419Z,5.07
2022-10-22T14:15:22.544Z,4.55
2022-10-22T14:17:52.493Z,4.60
2022-10-22T14:20:21.743Z,5.30
2022-10-22T14:22:49.681Z,6.72
2022-10-22T14:25:17.870Z,5.93
2022-10-22T14:27:45.091Z,6.80
2022-10-22T14:30:22.937Z,7.18
2022-10-22T14:32:50.335Z,5.97
2022-10-22T14:35:18.992Z,6.90
2022-10-22T14:37:46.297Z,5.72
2022-10-22T14:40:14.610Z,6.28
2022-10-22T14:42:43.151Z,6.20
2022-10-22T14:45:16.425Z,5.90
2022-10-22T14:47:43.840Z,5.57
2022-10-22T14:50:11.286Z,5.88
2022-10-22T14:52:38.744Z,4.95
2022-10-22T14:55:06.265Z,4.78
2022-10-22T14:57:33.489Z,4.25
2022-10-22T15:00:00.642Z,4.60
2022-10-22T15:02:27.797Z,4.15
2022-10-22T15:04:55.067Z,3.00
2022-10-22T15:07:24.644Z,3.78
2022-10-22T15:09:51.888Z,2.72
2022-10-22T15:12:20.581Z,2.92
2022-10-22T15:14:48.376Z,2.67
2022-10-22T15:17:16.352Z,2.90
2022-10-22T15:19:43.855Z,2.97
2022-10-22T15:22:14.299Z,2.50
2022-10-22T15:24:44.715Z,2.90
2022-10-22T15:27:15.489Z,3.65
2022-10-22T15:29:43.665Z,3.28
2022-10-22T15:32:10.824Z,3.88
2022-10-22T15:34:38.859Z,3.20
2022-10-22T15:37:07.942Z,3.80
2022-10-22T15:39:35.140Z,3.28
2022-10-22T15:42:02.255Z,3.95
2022-10-22T15:44:30.893Z,3.30
2022-10-22T15:46:58.530Z,3.90
2022-10-22T15:49:26.725Z,3.50
2022-10-22T15:51:54.311Z,3.28
2022-10-22T15:54:25.341Z,3.45
2022-10-22T15:56:52.721Z,3.65
2022-10-22T15:59:20.010Z,3.55
2022-10-22T16:01:47.301Z,3.75
2022-10-22T16:04:14.529Z,3.80
2022-10-22T16:06:42.936Z,5.00
2022-10-22T16:09:11.750Z,4.15
2022-10-22T16:11:39.298Z,3.63
2022-10-22T16:14:06.943Z,4.65
2022-10-22T16:16:35.488Z,3.63
2022-10-22T16:19:03.073Z,4.20
2022-10-22T16:21:30.274Z,4.35
2022-10-22T16:23:58.258Z,3.95
2022-10-22T16:26:27.289Z,4.25
2022-10-22T16:28:54.408Z,4.28
2022-10-22T16:31:21.552Z,4.10
2022-10-22T16:33:50.373Z,4.35
2022-10-22T16:36:18.910Z,4.97
2022-10-22T16:38:46.694Z,4.38
2022-10-22T16:41:15.560Z,4.45
2022-10-22T16:43:44.305Z,3.90
2022-10-22T16:46:12.091Z,4.50
2022-10-22T16:48:42.053Z,3.90
2022-10-22T16:51:10.204Z,4.07
2022-10-22T16:53:37.665Z,4.18
2022-10-22T16:56:05.045Z,3.88
2022-10-22T16:58:32.280Z,4.80
2022-10-22T17:00:59.544Z,5.07
2022-10-22T17:03:28.362Z,4.45
2022-10-22T17:05:58.713Z,5.15
2022-10-22T17:08:25.861Z,5.13
2022-10-22T17:10:53.002Z,5.72
2022-10-22T17:13:20.143Z,4.47
2022-10-22T17:15:47.335Z,4.50
2022-10-22T17:18:14.551Z,5.30
2022-10-22T17:20:43.236Z,4.13
2022-10-22T17:23:10.821Z,3.95
2022-10-22T17:25:42.971Z,4.32
2022-10-22T17:28:10.636Z,4.95
2022-10-22T17:30:39.047Z,4.13
2022-10-22T17:33:06.732Z,4.75
2022-10-22T17:35:34.367Z,4.60
2022-10-22T17:38:01.548Z,4.50
2022-10-22T17:40:28.785Z,5.30
2022-10-22T17:42:57.151Z,5.95
2022-10-22T17:45:24.339Z,7.25
2022-10-22T17:47:54.315Z,7.10
2022-10-22T17:50:21.453Z,6.88
2022-10-22T17:52:48.613Z,6.70
2022-10-22T17:55:15.888Z,8.07
2022-10-22T17:57:43.128Z,8.77
2022-10-22T18:00:10.615Z,10.23
2022-10-22T18:02:37.835Z,10.00
2022-10-22T18:05:05.203Z,10.68
2022-10-22T18:07:32.333Z,10.18
2022-10-22T18:09:59.489Z,9.93
2022-10-22T18:12:26.641Z,9.80
2022-10-22T18:14:54.452Z,11.07
2022-10-22T18:17:21.577Z,9.85
2022-10-22T18:19:49.498Z,10.55
2022-10-22T18:22:16.628Z,10.95
2022-10-22T18:24:43.766Z,10.65
2022-10-22T18:27:10.893Z,11.35
2022-10-22T18:29:38.039Z,11.43
2022-10-22T18:32:12.167Z,11.90
2022-10-22T18:34:40.448Z,11.48
2022-10-22T18:37:07.577Z,12.13
2022-10-22T18:39:35.557Z,10.65
2022-10-22T18:42:06.419Z,10.82
2022-10-22T18:44:34.654Z,11.75
2022-10-22T18:47:01.779Z,11.38
2022-10-22T18:49:28.921Z,11.63
2022-10-22T18:51:56.100Z,12.82
2022-10-22T18:54:24.398Z,11.20
2022-10-22T18:56:52.698Z,11.35
2022-10-22T18:59:22.776Z,11.55
2022-10-22T19:01:51.269Z,10.88
2022-10-22T19:04:18.449Z,11.23
2022-10-22T19:06:46.100Z,11.40
2022-10-22T19:09:14.140Z,12.60
2022-10-22T19:11:41.360Z,12.65
2022-10-22T19:14:08.546Z,11.05
2022-10-22T19:16:37.591Z,11.50
2022-10-22T19:19:05.832Z,12.63
2022-10-22T19:21:33.477Z,12.45
2022-10-22T19:24:01.169Z,12.02
2022-10-22T19:26:29.261Z,12.05
2022-10-22T19:28:57.587Z,12.27
2022-10-22T19:31:25.757Z,11.93
2022-10-22T19:33:55.316Z,11.15
2022-10-22T19:36:24.392Z,10.30
2022-10-22T19:38:51.973Z,10.15
2022-10-22T19:41:20.331Z,10.77
2022-10-22T19:43:49.342Z,11.93
2022-10-22T19:46:16.793Z,10.73
2022-10-22T19:51:17.632Z,12.00
2022-10-22T19:53:44.776Z,13.45
2022-10-22T19:56:12.846Z,14.23
2022-10-22T19:58:39.979Z,13.30
2022-10-22T20:01:07.875Z,13.25
2022-10-22T20:03:36.316Z,14.13
2022-10-22T20:06:04.420Z,13.55
2022-10-22T20:08:32.239Z,13.05
2022-10-22T20:10:59.425Z,13.77
2022-10-22T20:13:26.685Z,13.48
2022-10-22T20:15:53.832Z,15.98
2022-10-22T20:18:22.514Z,14.18
2022-10-22T20:20:49.821Z,13.45
2022-10-22T20:23:16.973Z,14.82
2022-10-22T20:25:45.273Z,15.63
2022-10-22T20:28:14.142Z,14.18
2022-10-22T20:30:45.000Z,13.18
2022-10-22T20:33:12.218Z,13.65
2022-10-22T20:35:39.764Z,14.02
2022-10-22T20:38:07.617Z,14.93
2022-10-22T20:40:35.177Z,14.25
2022-10-22T20:43:02.626Z,14.32
2022-10-22T20:45:30.022Z,14.02
2022-10-22T20:48:02.714Z,14.52
2022-10-22T20:50:33.988Z,15.57
2022-10-22T20:53:01.162Z,15.73
2022-10-22T20:55:28.446Z,15.55
2022-10-22T20:57:55.896Z,15.93
2022-10-22T21:00:23.109Z,16.65
2022-10-22T21:02:50.303Z,15.45
2022-10-22T21:05:17.491Z,15.18
2022-10-22T21:07:44.814Z,16.48
2022-10-22T21:10:12.025Z,16.10
2022-10-22T21:12:42.008Z,15.60
2022-10-22T21:15:12.557Z,16.42
2022-10-22T21:17:40.680Z,16.42
2022-10-22T21:20:08.109Z,15.90
2022-10-22T21:22:35.318Z,14.93
2022-10-22T21:25:02.459Z,15.13
2022-10-22T21:27:29.616Z,14.00
2022-10-22T21:29:56.785Z,16.40
2022-10-22T21:32:25.156Z,15.15
2022-10-22T21:34:52.331Z,16.80
2022-10-22T21:37:19.544Z,16.45
2022-10-22T21:39:46.848Z,17.90
2022-10-22T21:42:17.111Z,17.83
2022-10-22T21:44:44.244Z,18.40
2022-10-22T21:47:11.432Z,18.75
2022-10-22T21:49:38.644Z,18.85
2022-10-22T21:52:07.134Z,19.10
2022-10-22T21:54:37.286Z,19.33
2022-10-22T21:57:04.973Z,20.95
2022-10-22T21:59:32.440Z,22.85
2022-10-22T22:02:04.824Z,20.77
2022-10-22T22:04:33.400Z,21.08
2022-10-22T22:07:00.529Z,21.08
2022-10-22T22:09:27.673Z,20.40
2022-10-22T22:11:54.825Z,20.33
2022-10-22T22:14:22.018Z,20.90
2022-10-22T22:16:49.253Z,20.90
2022-10-22T22:19:16.396Z,21.10
2022-10-22T22:21:43.569Z,20.02
2022-10-22T22:24:12.378Z,21.00
2022-10-22T22:26:40.080Z,19.92
2022-10-22T22:29:07.254Z,19.83
2022-10-22T22:31:35.429Z,20.95
2022-10-22T22:34:06.923Z,20.10
2022-10-22T22:36:35.861Z,19.92
2022-10-22T22:39:03.281Z,21.10
2022-10-22T22:41:30.503Z,21.75
2022-10-22T22:43:57.663Z,19.63
2022-10-22T22:46:24.808Z,20.80
2022-10-22T22:48:52.028Z,21.10
2022-10-22T22:51:19.365Z,21.42
2022-10-22T22:53:46.651Z,21.70
2022-10-22T22:56:15.620Z,20.13
2022-10-22T22:58:43.157Z,19.67
2022-10-22T23:01:15.265Z,20.33
2022-10-22T23:03:43.050Z,20.48
2022-10-22T23:06:10.326Z,21.17
2022-10-22T23:08:37.553Z,19.58
2022-10-22T23:11:05.921Z,20.33
2022-10-22T23:13:33.422Z,18.92
2022-10-22T23:16:00.590Z,19.40
2022-10-22T23:18:27.756Z,19.80
2022-10-22T23:20:54.902Z,19.05
2022-10-22T23:23:22.096Z,19.80
2022-10-22T23:25:49.340Z,19.17
2022-10-22T23:28:16.542Z,18.25
2022-10-22T23:30:45.253Z,18.67
2022-10-22T23:33:12.596Z,19.13
2022-10-22T23:35:41.497Z,19.58
2022-10-22T23:38:08.860Z,18.60
2022-10-22T23:40:36.177Z,19.48
2022-10-22T23:43:03.931Z,19.75
2022-10-22T23:45:31.218Z,17.55
2022-10-22T23:47:58.409Z,20.73
2022-10-22T23:50:25.674Z,18.40
2022-10-22T23:52:52.890Z,17.95
2022-10-22T23:55:20.464Z,18.50
2022-10-22T23:57:47.607Z,18.83
